Maberry, Arkansas
Current Conditions -  °F | °C
As of 1:56 AM on Thursday 23 Oct 2014 (Local Time) from KSRC Reporting Station
Clear Clear  
Wind Chill:   Ceiling: Unl
Heat Index:   Visibility: 10mi
Dew Point:   Wind: 3mph
Humidity: 89%   Direction: 360°N
Pressure: 30.2"   Gusts: NA
Location:  35.03°N, 91.2263°W
Report Text: KSRC 230656Z AUTO 36003KT 10SM CLR 07/05 A3020 RMK AO2 SLP232 T00670050 TSNO
Loading
Personal Weather Stations






























Interactive Weather Map
Tropical Storm Tracking
New forecast layout! Learn more

10-Day Weather Forecast

Advertisements
Track Severe Weather on mobile